Time;durP1;ratioP1;P1;durP2;ratioP2;P2;SDS_P1;SDS_P2;PMS_P1;PMS_P2;Temp;Humidity;BMP_temperature;BMP_pressure;BME280_temperature;BME280_humidity;BME280_pressure;Samples;Min_cycle;Max_cycle;Signal;HPM_P1;HPM_P2
2022/11/28 00:01:01;;;;;;;17.00;10.70;;;9.50;99.90;;;;;;5085086;28;20031;-69
2022/11/28 00:03:27;;;;;;;16.15;9.30;;;9.50;99.90;;;;;;5083911;28;20480;-68
2022/11/28 00:05:52;;;;;;;17.63;10.98;;;9.60;99.90;;;;;;5086762;28;20064;-73
2022/11/28 00:08:18;;;;;;;23.77;12.93;;;9.60;99.90;;;;;;5081599;28;20480;-72
2022/11/28 00:10:44;;;;;;;17.98;11.00;;;9.60;99.90;;;;;;5084756;28;20048;-71
2022/11/28 00:13:10;;;;;;;12.77;9.15;;;9.70;99.90;;;;;;5085960;28;20016;-71
2022/11/28 00:15:35;;;;;;;12.20;7.95;;;9.70;99.90;;;;;;5084214;28;20030;-73
2022/11/28 00:18:01;;;;;;;9.98;6.32;;;9.60;99.90;;;;;;5082449;28;20371;-70
2022/11/28 00:20:27;;;;;;;8.48;6.25;;;9.60;99.90;;;;;;5082754;28;20053;-70
2022/11/28 00:22:52;;;;;;;8.30;6.55;;;9.60;99.90;;;;;;5084787;28;20036;-70
2022/11/28 00:25:18;;;;;;;8.32;4.88;;;9.60;99.90;;;;;;5082389;28;20020;-73
2022/11/28 00:27:43;;;;;;;7.32;4.80;;;9.70;99.90;;;;;;5085416;28;20376;-73
2022/11/28 00:30:09;;;;;;;10.90;4.95;;;9.60;99.90;;;;;;5084653;28;20028;-71
2022/11/28 00:32:35;;;;;;;5.70;4.55;;;9.70;99.90;;;;;;5079323;28;20032;-68
2022/11/28 00:35:01;;;;;;;6.20;4.28;;;9.70;99.90;;;;;;5083908;28;20152;-73
2022/11/28 00:37:26;;;;;;;7.20;4.50;;;9.70;99.90;;;;;;5085254;28;20055;-72
2022/11/28 00:39:52;;;;;;;5.35;4.28;;;9.80;99.90;;;;;;5084608;28;20024;-71
2022/11/28 00:42:20;;;;;;;6.63;3.83;;;9.80;99.90;;;;;;5083361;28;20541;-71
2022/11/28 00:44:47;;;;;;;5.65;3.72;;;9.70;99.90;;;;;;5085672;28;20045;-72
2022/11/28 00:47:13;;;;;;;6.43;4.38;;;9.80;99.90;;;;;;5084582;28;20028;-69
2022/11/28 00:49:39;;;;;;;7.72;4.40;;;9.90;99.90;;;;;;5084768;28;20027;-73
2022/11/28 00:52:05;;;;;;;6.30;3.95;;;9.80;99.90;;;;;;5082746;28;20024;-70
2022/11/28 00:54:30;;;;;;;5.18;3.35;;;9.80;99.90;;;;;;5085374;28;20052;-69
2022/11/28 00:56:56;;;;;;;5.35;3.47;;;9.80;99.90;;;;;;5083268;28;20071;-69
2022/11/28 00:59:21;;;;;;;6.05;4.30;;;9.80;99.90;;;;;;5079935;28;20361;-71
2022/11/28 01:01:47;;;;;;;7.30;3.67;;;9.80;99.90;;;;;;5084257;28;20036;-70
2022/11/28 01:04:15;;;;;;;7.57;4.28;;;9.90;99.90;;;;;;5082586;28;20020;-71
2022/11/28 01:06:43;;;;;;;7.38;4.20;;;9.80;99.90;;;;;;5084616;28;20035;-69
2022/11/28 01:09:18;;;;;;;5.10;3.90;;;9.90;99.90;;;;;;5081180;28;20025;-70
2022/11/28 01:11:45;;;;;;;4.97;3.40;;;9.90;99.90;;;;;;5085646;28;20031;-68
2022/11/28 01:14:12;;;;;;;5.15;3.60;;;9.90;99.90;;;;;;5083787;28;20070;-72
2022/11/28 01:16:37;;;;;;;5.85;3.38;;;9.80;99.90;;;;;;5085615;28;20036;-66
2022/11/28 01:19:04;;;;;;;8.23;3.97;;;9.90;99.90;;;;;;5086553;28;20420;-72
2022/11/28 01:21:29;;;;;;;3.85;3.30;;;9.90;99.90;;;;;;5083930;28;20075;-68
2022/11/28 01:23:55;;;;;;;6.32;3.35;;;9.90;99.90;;;;;;5082532;28;20060;-72
2022/11/28 01:26:24;;;;;;;4.55;3.45;;;9.90;99.90;;;;;;5085839;28;20057;-72
2022/11/28 01:28:50;;;;;;;5.45;4.35;;;9.90;99.90;;;;;;5086031;28;20059;-68
2022/11/28 01:31:19;;;;;;;5.15;3.33;;;10.00;99.90;;;;;;5085944;28;20048;-71
2022/11/28 01:33:45;;;;;;;8.65;3.95;;;10.00;99.90;;;;;;5081548;28;20024;-72
2022/11/28 01:36:12;;;;;;;6.63;4.05;;;10.00;99.90;;;;;;5084945;28;20087;-73
2022/11/28 01:38:38;;;;;;;5.97;3.47;;;10.00;99.90;;;;;;5084940;28;20551;-70
2022/11/28 01:41:04;;;;;;;7.05;3.53;;;9.90;99.90;;;;;;5084070;28;20032;-73
2022/11/28 01:43:30;;;;;;;5.25;4.07;;;9.90;99.90;;;;;;5081062;28;20032;-71
2022/11/28 01:45:56;;;;;;;7.28;3.90;;;10.00;99.90;;;;;;5088726;28;20424;-71
2022/11/28 01:48:29;;;;;;;5.93;3.67;;;9.90;99.90;;;;;;5089380;28;20031;-74
2022/11/28 01:51:00;;;;;;;8.00;4.05;;;10.00;99.90;;;;;;5085297;28;20051;-71
2022/11/28 01:53:29;;;;;;;6.22;4.00;;;10.00;99.90;;;;;;5086570;28;20715;-74
2022/11/28 01:55:59;;;;;;;5.72;4.00;;;10.00;99.90;;;;;;5088127;28;20024;-73
2022/11/28 01:58:25;;;;;;;5.40;4.07;;;10.00;99.90;;;;;;5088174;28;20034;-72
2022/11/28 02:00:51;;;;;;;4.70;3.88;;;10.00;99.90;;;;;;5088346;28;20074;-72
2022/11/28 02:03:23;;;;;;;10.25;4.60;;;10.00;99.90;;;;;;5086244;28;20032;-70
2022/11/28 02:05:50;;;;;;;6.28;4.38;;;10.10;99.90;;;;;;5089040;28;20138;-74
2022/11/28 02:08:15;;;;;;;8.95;4.55;;;10.00;99.90;;;;;;5088828;28;20020;-74
2022/11/28 02:11:15;;;;;;;10.63;4.47;;;9.90;99.90;;;;;;5089151;28;20175;-73
2022/11/28 02:14:03;;;;;;;6.05;4.68;;;9.90;99.90;;;;;;5087548;28;20118;-68
2022/11/28 02:16:44;;;;;;;5.60;4.05;;;9.80;99.90;;;;;;5087824;28;20032;-73
2022/11/28 02:19:48;;;;;;;8.90;4.55;;;9.70;99.90;;;;;;5088424;28;20107;-70
2022/11/28 02:22:34;;;;;;;6.38;4.28;;;9.80;99.90;;;;;;5084702;28;20035;-70
2022/11/28 02:25:08;;;;;;;7.47;4.70;;;9.80;99.90;;;;;;5087211;28;20039;-68
2022/11/28 02:28:18;;;;;;;5.53;4.70;;;9.80;99.90;;;;;;5084649;28;20086;-71
2022/11/28 02:31:10;;;;;;;7.43;5.00;;;9.80;99.90;;;;;;5088373;28;20028;-67
2022/11/28 02:33:43;;;;;;;7.60;5.40;;;9.80;99.90;;;;;;5056236;28;20040;-67
2022/11/28 02:36:18;;;;;;;5.35;4.75;;;9.70;99.90;;;;;;5083491;28;20024;-74
2022/11/28 02:39:11;;;;;;;7.03;5.25;;;9.80;99.90;;;;;;5088269;28;20056;-66
2022/11/28 02:41:46;;;;;;;8.23;5.45;;;9.80;99.90;;;;;;5086606;28;20093;-72
2022/11/28 02:44:25;;;;;;;8.15;5.25;;;9.80;99.90;;;;;;5087009;28;20077;-67
2022/11/28 02:47:22;;;;;;;8.18;5.22;;;9.80;99.90;;;;;;5084734;28;20044;-67
2022/11/28 02:50:08;;;;;;;8.52;5.28;;;9.80;99.90;;;;;;5087625;28;20027;-67
2022/11/28 02:52:44;;;;;;;10.13;5.50;;;9.80;99.90;;;;;;5084608;28;20093;-67
2022/11/28 02:55:12;;;;;;;7.00;4.70;;;9.80;99.90;;;;;;5086128;28;22083;-70
2022/11/28 02:57:40;;;;;;;15.27;5.72;;;9.80;99.90;;;;;;5086448;28;20020;-71
2022/11/28 03:00:32;;;;;;;9.32;5.90;;;9.60;99.90;;;;;;5083494;28;20322;-70
2022/11/28 03:03:26;;;;;;;7.75;5.20;;;9.70;99.90;;;;;;5086884;28;20507;-67
2022/11/28 03:06:00;;;;;;;9.55;5.65;;;9.60;99.90;;;;;;5084262;28;20464;-67
2022/11/28 03:08:41;;;;;;;10.50;6.90;;;9.70;99.90;;;;;;5102167;28;20028;-73
2022/11/28 03:11:20;;;;;;;11.23;6.10;;;9.70;99.90;;;;;;5086265;28;20537;-70
2022/11/28 03:14:06;;;;;;;9.82;5.47;;;9.70;99.90;;;;;;5083770;28;20059;-73
2022/11/28 03:16:44;;;;;;;8.15;5.20;;;9.80;99.90;;;;;;5083620;28;20024;-68
2022/11/28 03:19:42;;;;;;;11.52;6.07;;;9.70;99.90;;;;;;5085476;28;20650;-70
2022/11/28 03:22:17;;;;;;;8.27;5.60;;;9.70;99.90;;;;;;5087347;28;20047;-74
2022/11/28 03:24:50;;;;;;;14.80;5.93;;;9.70;99.90;;;;;;5088656;28;20031;-70
2022/11/28 03:27:35;;;;;;;8.55;5.80;;;9.60;99.90;;;;;;5088435;28;20028;-71
2022/11/28 03:30:10;;;;;;;11.60;6.70;;;9.60;99.90;;;;;;5084696;28;20028;-73
2022/11/28 03:32:37;;;;;;;10.75;5.55;;;9.60;99.90;;;;;;5091365;28;20174;-72
2022/11/28 03:35:12;;;;;;;8.82;5.53;;;9.60;99.90;;;;;;5092289;28;20089;-73
2022/11/28 03:37:49;;;;;;;11.18;6.65;;;9.70;99.90;;;;;;5086343;28;20013;-73
2022/11/28 03:40:21;;;;;;;12.85;6.32;;;9.70;99.90;;;;;;5091049;28;20024;-73
2022/11/28 03:43:07;;;;;;;8.98;6.13;;;9.70;99.90;;;;;;5088250;28;21203;-70
2022/11/28 03:45:39;;;;;;;12.98;5.90;;;9.70;99.90;;;;;;5087624;28;20098;-73
2022/11/28 03:48:20;;;;;;;7.97;6.47;;;9.60;99.90;;;;;;5092188;28;20035;-73
2022/11/28 03:51:12;;;;;;;10.32;5.70;;;9.60;99.90;;;;;;5091733;28;20031;-73
2022/11/28 03:53:47;;;;;;;9.43;5.93;;;9.70;99.90;;;;;;5083951;28;20492;-71
2022/11/28 03:56:21;;;;;;;10.07;6.20;;;9.70;99.90;;;;;;5088175;28;20024;-72
2022/11/28 03:58:56;;;;;;;10.73;5.95;;;9.70;99.90;;;;;;5091539;28;20059;-73
2022/11/28 04:01:35;;;;;;;11.63;6.13;;;9.70;99.90;;;;;;5088443;28;20032;-73
2022/11/28 04:04:42;;;;;;;9.48;5.47;;;9.60;99.90;;;;;;5090967;28;20020;-73
2022/11/28 04:07:21;;;;;;;12.38;6.18;;;9.60;99.90;;;;;;5047410;28;20074;-73
2022/11/28 04:10:07;;;;;;;8.30;6.13;;;9.60;99.90;;;;;;5090550;28;20049;-71
2022/11/28 04:12:58;;;;;;;7.55;5.65;;;9.60;99.90;;;;;;5086184;28;20130;-72
2022/11/28 04:15:38;;;;;;;10.75;6.85;;;9.70;99.90;;;;;;5090648;28;20035;-72
2022/11/28 04:18:16;;;;;;;9.77;5.40;;;9.70;99.90;;;;;;5090190;28;20050;-73
2022/11/28 04:20:47;;;;;;;7.40;5.43;;;9.60;99.90;;;;;;5085656;28;20040;-72
2022/11/28 04:23:17;;;;;;;10.15;6.70;;;9.60;99.90;;;;;;5091292;28;20038;-73
2022/11/28 04:25:50;;;;;;;11.23;6.15;;;9.70;99.90;;;;;;5085756;28;20392;-73
2022/11/28 04:28:21;;;;;;;8.68;6.38;;;9.60;99.90;;;;;;5091216;28;20020;-73
2022/11/28 04:30:49;;;;;;;9.68;6.22;;;9.70;99.90;;;;;;5087234;28;20488;-72
2022/11/28 04:33:17;;;;;;;8.70;5.75;;;9.70;99.90;;;;;;5090904;28;20506;-73
2022/11/28 04:35:48;;;;;;;11.02;6.03;;;9.70;99.90;;;;;;5091808;28;20055;-73
2022/11/28 04:38:14;;;;;;;7.65;5.38;;;9.60;99.90;;;;;;5090496;28;20085;-74
2022/11/28 04:40:48;;;;;;;8.32;5.90;;;9.60;99.90;;;;;;5089938;28;20059;-74
2022/11/28 04:43:20;;;;;;;10.85;5.75;;;9.70;99.90;;;;;;5087965;28;20035;-74
2022/11/28 04:45:53;;;;;;;10.70;5.95;;;9.60;99.90;;;;;;5083201;28;20024;-73
2022/11/28 04:48:19;;;;;;;9.27;5.28;;;9.60;99.90;;;;;;5089527;28;20523;-73
2022/11/28 04:51:16;;;;;;;7.50;5.22;;;9.70;99.90;;;;;;5087745;28;20108;-74
2022/11/28 04:54:00;;;;;;;13.13;5.95;;;9.60;99.90;;;;;;5084810;28;20032;-73
2022/11/28 04:56:37;;;;;;;7.57;5.03;;;9.60;99.90;;;;;;5088737;28;20111;-74
2022/11/28 04:59:05;;;;;;;13.35;9.15;;;9.60;99.90;;;;;;5088352;28;20468;-74
2022/11/28 05:01:32;;;;;;;15.38;6.05;;;9.60;99.90;;;;;;5089457;28;20034;-73
2022/11/28 05:03:59;;;;;;;10.75;5.70;;;9.60;99.90;;;;;;5086409;28;20052;-72
2022/11/28 05:06:30;;;;;;;8.00;5.68;;;9.50;99.90;;;;;;5090780;28;20066;-68
2022/11/28 05:08:56;;;;;;;8.85;6.00;;;9.60;99.90;;;;;;5083392;28;20024;-74
2022/11/28 05:11:21;;;;;;;10.15;6.20;;;9.70;99.90;;;;;;5090510;28;20024;-72
2022/11/28 05:13:47;;;;;;;12.75;5.65;;;9.70;99.90;;;;;;5090935;28;20038;-74
2022/11/28 05:16:14;;;;;;;9.52;6.22;;;9.60;99.90;;;;;;5087586;28;20027;-74
2022/11/28 05:18:39;;;;;;;14.00;6.90;;;9.60;99.90;;;;;;5089194;28;20107;-73
2022/11/28 05:21:07;;;;;;;11.00;6.38;;;9.60;99.90;;;;;;5090238;28;20139;-73
2022/11/28 05:23:35;;;;;;;13.60;7.30;;;9.70;99.90;;;;;;5094161;28;20024;-73
2022/11/28 05:26:14;;;;;;;10.75;6.53;;;9.70;99.90;;;;;;5091262;28;20039;-73
2022/11/28 05:28:46;;;;;;;11.05;5.80;;;9.70;99.90;;;;;;5094510;28;20064;-74
2022/11/28 05:31:12;;;;;;;12.13;7.40;;;9.70;99.90;;;;;;5094273;28;20092;-74
2022/11/28 05:33:38;;;;;;;10.80;6.85;;;9.80;99.90;;;;;;5094425;28;20284;-74
2022/11/28 05:36:05;;;;;;;13.80;7.20;;;9.90;99.90;;;;;;5095085;28;20107;-73
2022/11/28 05:38:32;;;;;;;13.82;7.85;;;9.90;99.90;;;;;;5090074;28;20035;-73
2022/11/28 05:40:59;;;;;;;10.70;7.10;;;9.90;99.90;;;;;;5093984;28;20496;-74
2022/11/28 05:43:26;;;;;;;10.48;6.63;;;9.80;99.90;;;;;;5094345;28;20024;-75
2022/11/28 05:45:52;;;;;;;13.93;6.63;;;9.80;99.90;;;;;;5089737;28;20035;-75
2022/11/28 05:48:18;;;;;;;13.68;7.20;;;9.80;99.90;;;;;;5093746;28;20045;-74
2022/11/28 05:50:43;;;;;;;14.02;7.18;;;9.80;99.90;;;;;;5091091;28;20483;-75
2022/11/28 05:53:10;;;;;;;11.25;7.43;;;9.80;99.90;;;;;;5093377;28;20032;-74
2022/11/28 05:55:39;;;;;;;9.45;6.90;;;9.90;99.90;;;;;;5090231;28;20024;-73
2022/11/28 05:58:05;;;;;;;10.63;6.80;;;9.80;99.90;;;;;;5092766;28;20034;-74
2022/11/28 06:00:31;;;;;;;13.80;7.07;;;9.80;99.90;;;;;;5091825;28;20025;-73
2022/11/28 06:02:57;;;;;;;13.60;7.45;;;9.80;99.90;;;;;;5092448;28;20349;-73
2022/11/28 06:05:23;;;;;;;10.88;6.85;;;9.80;99.90;;;;;;5094203;28;20015;-74
2022/11/28 06:07:49;;;;;;;10.35;6.47;;;9.90;99.90;;;;;;5090438;28;20104;-73
2022/11/28 06:10:14;;;;;;;10.25;7.10;;;9.70;99.90;;;;;;5091939;28;20055;-74
2022/11/28 06:12:40;;;;;;;8.82;6.72;;;9.80;99.90;;;;;;5089988;28;20399;-73
2022/11/28 06:15:06;;;;;;;15.02;7.82;;;9.90;99.90;;;;;;5093073;28;20085;-74
2022/11/28 06:17:32;;;;;;;9.80;6.82;;;9.80;99.90;;;;;;5090346;28;20028;-74
2022/11/28 06:19:57;;;;;;;14.30;7.20;;;9.80;99.90;;;;;;5093273;28;20030;-75
2022/11/28 06:22:23;;;;;;;12.00;6.63;;;9.80;99.90;;;;;;5090128;28;20024;-74
2022/11/28 06:24:49;;;;;;;10.32;7.30;;;9.90;99.90;;;;;;5094040;28;20059;-74
2022/11/28 06:27:14;;;;;;;10.60;6.95;;;9.80;99.90;;;;;;5086682;28;20031;-73
2022/11/28 06:29:40;;;;;;;12.73;7.15;;;9.90;99.90;;;;;;5093522;28;20020;-74
2022/11/28 06:32:06;;;;;;;10.48;7.43;;;9.90;99.90;;;;;;5092174;28;20069;-74
2022/11/28 06:34:31;;;;;;;15.20;7.93;;;9.90;99.90;;;;;;5091085;28;20385;-74
2022/11/28 06:36:57;;;;;;;11.88;7.70;;;9.80;99.90;;;;;;5086554;28;20103;-74
2022/11/28 06:39:23;;;;;;;9.95;7.53;;;9.80;99.90;;;;;;5089475;28;20063;-74
2022/11/28 06:41:49;;;;;;;11.52;7.88;;;9.80;99.90;;;;;;5091547;28;20060;-73
2022/11/28 06:44:15;;;;;;;17.27;8.77;;;9.80;99.90;;;;;;5090385;28;20751;-75
2022/11/28 06:46:41;;;;;;;12.23;8.00;;;9.80;99.90;;;;;;5089297;28;20137;-74
2022/11/28 06:49:12;;;;;;;12.90;7.90;;;9.90;99.90;;;;;;5089857;28;20020;-73
2022/11/28 06:51:39;;;;;;;12.10;7.80;;;9.90;99.90;;;;;;5093767;28;20036;-74
2022/11/28 06:54:05;;;;;;;14.05;9.40;;;9.90;99.90;;;;;;5089176;28;20032;-74
2022/11/28 06:56:31;;;;;;;14.45;9.25;;;9.90;99.90;;;;;;5092461;28;20038;-74
2022/11/28 06:58:57;;;;;;;15.10;8.32;;;9.80;99.90;;;;;;5092596;28;20107;-74
2022/11/28 07:01:25;;;;;;;15.98;9.15;;;9.80;99.90;;;;;;5084926;28;20028;-74
2022/11/28 07:03:53;;;;;;;14.52;9.07;;;9.90;99.90;;;;;;5089410;28;20100;-73
2022/11/28 07:06:20;;;;;;;14.18;9.25;;;9.90;99.90;;;;;;5088758;28;20047;-73
2022/11/28 07:08:46;;;;;;;15.82;8.52;;;9.90;99.90;;;;;;5092461;28;20027;-74
2022/11/28 07:11:13;;;;;;;17.58;9.63;;;9.80;99.90;;;;;;5092774;28;20035;-73
2022/11/28 07:13:40;;;;;;;15.95;9.55;;;9.90;99.90;;;;;;5087619;28;20012;-72
2022/11/28 07:16:06;;;;;;;11.23;8.07;;;9.90;99.90;;;;;;5092463;28;20672;-74
2022/11/28 07:18:33;;;;;;;15.30;9.07;;;9.90;99.90;;;;;;5091836;28;20035;-75
2022/11/28 07:20:59;;;;;;;15.73;9.30;;;9.90;99.90;;;;;;5090384;28;20124;-74
2022/11/28 07:23:25;;;;;;;17.40;9.35;;;10.00;99.90;;;;;;5092303;28;20491;-73
2022/11/28 07:25:50;;;;;;;15.00;9.13;;;9.90;99.90;;;;;;5091054;28;20024;-74
2022/11/28 07:28:16;;;;;;;18.90;9.90;;;10.00;99.90;;;;;;5085437;28;20043;-73
2022/11/28 07:30:41;;;;;;;16.45;10.50;;;10.00;99.90;;;;;;5089927;28;20043;-74
2022/11/28 07:33:07;;;;;;;14.73;10.30;;;10.10;99.90;;;;;;5091564;28;20120;-72
2022/11/28 07:35:33;;;;;;;18.65;11.20;;;10.00;99.90;;;;;;5090310;28;20020;-74
2022/11/28 07:37:59;;;;;;;14.25;9.00;;;10.00;99.90;;;;;;5087066;28;20008;-71
2022/11/28 07:40:24;;;;;;;20.35;11.93;;;10.00;99.90;;;;;;5089646;28;20035;-73
2022/11/28 07:42:50;;;;;;;17.23;10.00;;;10.00;99.90;;;;;;5083126;28;20039;-72
2022/11/28 07:45:16;;;;;;;22.50;13.35;;;10.10;99.90;;;;;;5089338;28;20038;-72
2022/11/28 07:47:41;;;;;;;17.73;12.52;;;10.10;99.90;;;;;;5089338;28;20117;-71
2022/11/28 07:50:07;;;;;;;16.20;10.00;;;10.00;99.90;;;;;;5090557;28;20024;-74
2022/11/28 07:52:33;;;;;;;14.40;10.00;;;10.00;99.90;;;;;;5092180;28;20038;-74
2022/11/28 07:54:59;;;;;;;19.77;12.05;;;10.10;99.90;;;;;;5088094;28;20024;-74
2022/11/28 07:57:24;;;;;;;19.67;11.52;;;10.10;99.90;;;;;;5091603;28;20056;-74
2022/11/28 07:59:50;;;;;;;18.70;11.80;;;10.10;99.90;;;;;;5084958;28;20415;-73
2022/11/28 08:02:15;;;;;;;14.57;11.57;;;10.10;99.90;;;;;;5088508;28;20450;-74
2022/11/28 08:04:41;;;;;;;17.50;12.45;;;10.10;99.90;;;;;;5089660;28;20008;-71
2022/11/28 08:07:06;;;;;;;20.77;13.77;;;10.10;99.90;;;;;;5089356;28;20054;-72
2022/11/28 08:09:32;;;;;;;16.42;12.15;;;9.90;99.90;;;;;;5085746;28;20034;-73
2022/11/28 08:11:57;;;;;;;17.10;12.80;;;10.00;99.90;;;;;;5091389;28;20384;-74
2022/11/28 08:14:23;;;;;;;21.70;12.85;;;10.00;99.90;;;;;;5087365;28;20028;-73
2022/11/28 08:16:50;;;;;;;21.83;13.38;;;10.10;99.90;;;;;;5091850;28;20035;-73
2022/11/28 08:19:15;;;;;;;23.42;13.05;;;10.10;99.90;;;;;;5086975;28;20036;-72
2022/11/28 08:21:41;;;;;;;19.52;12.80;;;10.20;99.90;;;;;;5091254;28;20036;-71
2022/11/28 08:24:07;;;;;;;18.58;12.30;;;10.20;99.90;;;;;;5088270;28;20107;-73
2022/11/28 08:26:34;;;;;;;18.30;11.82;;;10.20;99.90;;;;;;5091371;28;20107;-73
2022/11/28 08:29:01;;;;;;;17.27;12.10;;;10.20;99.90;;;;;;5085968;28;20596;-70
2022/11/28 08:31:30;;;;;;;19.55;13.07;;;10.20;99.90;;;;;;5090661;28;20058;-72
2022/11/28 08:34:00;;;;;;;17.30;11.77;;;10.20;99.90;;;;;;5091025;28;20028;-72
2022/11/28 08:36:25;;;;;;;20.63;12.90;;;10.20;99.90;;;;;;5087994;28;20095;-73
2022/11/28 08:38:51;;;;;;;19.48;12.55;;;10.20;99.90;;;;;;5086457;28;20153;-73
2022/11/28 08:41:20;;;;;;;24.38;12.57;;;10.30;99.90;;;;;;5081961;28;20522;-72
2022/11/28 08:43:46;;;;;;;20.23;12.98;;;10.30;99.90;;;;;;5089592;28;20031;-70
2022/11/28 08:46:14;;;;;;;17.77;11.38;;;10.30;99.90;;;;;;5087327;28;20021;-72
2022/11/28 08:48:41;;;;;;;23.77;14.02;;;10.30;99.90;;;;;;5086526;28;20495;-71
2022/11/28 08:51:10;;;;;;;20.77;12.65;;;10.30;99.90;;;;;;5090672;28;20024;-73
2022/11/28 08:53:35;;;;;;;16.90;11.15;;;10.30;99.90;;;;;;5089216;28;20027;-72
2022/11/28 08:56:02;;;;;;;19.38;13.02;;;10.30;99.90;;;;;;5094753;28;20028;-74
2022/11/28 08:58:27;;;;;;;19.95;13.32;;;10.30;99.90;;;;;;5091643;28;20047;-74
2022/11/28 09:00:53;;;;;;;21.88;13.35;;;10.30;99.90;;;;;;5094784;28;20464;-74
2022/11/28 09:03:19;;;;;;;18.63;12.23;;;10.40;99.90;;;;;;5093590;28;20090;-74
2022/11/28 09:05:46;;;;;;;31.17;16.05;;;10.30;99.90;;;;;;5093247;28;20024;-74
2022/11/28 09:08:12;;;;;;;18.90;11.77;;;10.40;99.90;;;;;;5087171;28;20030;-72
2022/11/28 09:10:39;;;;;;;24.90;13.10;;;10.40;99.90;;;;;;5091205;28;20032;-72
2022/11/28 09:13:05;;;;;;;31.67;15.85;;;10.50;99.90;;;;;;5090583;28;20472;-75
2022/11/28 09:15:31;;;;;;;29.30;15.77;;;10.50;99.90;;;;;;5092470;28;20043;-74
2022/11/28 09:17:57;;;;;;;21.75;12.95;;;10.50;99.90;;;;;;5088525;28;20135;-73
2022/11/28 09:20:23;;;;;;;28.65;15.82;;;10.50;99.90;;;;;;5094449;28;20038;-74
2022/11/28 09:22:48;;;;;;;32.63;16.17;;;10.50;99.90;;;;;;5094646;28;20035;-74
2022/11/28 09:25:14;;;;;;;31.73;16.40;;;10.50;99.90;;;;;;5084468;28;20024;-74
2022/11/28 09:27:40;;;;;;;37.47;17.45;;;10.50;99.90;;;;;;5094252;28;20028;-72
2022/11/28 09:30:07;;;;;;;34.33;16.63;;;10.60;99.90;;;;;;5091191;28;20028;-71
2022/11/28 09:32:33;;;;;;;31.35;17.83;;;10.60;99.90;;;;;;5090902;28;20038;-73
2022/11/28 09:34:59;;;;;;;39.67;18.63;;;10.50;99.90;;;;;;5095012;28;20020;-73
2022/11/28 09:37:26;;;;;;;33.47;17.65;;;10.60;99.90;;;;;;5094002;28;20028;-74
2022/11/28 09:39:51;;;;;;;41.70;20.77;;;10.60;99.90;;;;;;5090916;28;20013;-73
2022/11/28 09:42:52;;;;;;;37.38;17.65;;;10.60;99.90;;;;;;5093639;28;20043;-74
2022/11/28 09:45:22;;;;;;;37.40;19.10;;;10.60;99.90;;;;;;5051891;28;20060;-73
2022/11/28 09:48:06;;;;;;;41.78;19.60;;;10.60;99.90;;;;;;5081822;28;20043;-72
2022/11/28 09:50:38;;;;;;;29.48;17.83;;;10.60;99.90;;;;;;5088798;28;20025;-73
2022/11/28 09:53:04;;;;;;;;;;;10.70;99.90;;;;;;5091615;28;20021;-70
2022/11/28 09:55:48;;;;;;;32.65;17.52;;;10.60;99.90;;;;;;5086504;28;19915;-73
2022/11/28 09:58:23;;;;;;;37.30;19.60;;;10.70;99.90;;;;;;5089461;28;20020;-72
2022/11/28 10:01:15;;;;;;;34.15;18.95;;;10.70;99.90;;;;;;5104337;28;20131;-74
2022/11/28 10:04:02;;;;;;;34.67;18.65;;;10.70;99.90;;;;;;5091929;28;20107;-73
2022/11/28 10:06:31;;;;;;;36.67;19.83;;;10.70;99.90;;;;;;5090094;28;20357;-73
2022/11/28 10:09:00;;;;;;;25.98;16.35;;;10.70;99.90;;;;;;5092781;28;20048;-73
2022/11/28 10:11:48;;;;;;;33.70;18.00;;;10.60;99.90;;;;;;5085781;28;20349;-72
2022/11/28 10:14:20;;;;;;;36.60;18.92;;;10.70;99.90;;;;;;5090441;28;20035;-72
2022/11/28 10:17:11;;;;;;;32.15;18.52;;;10.70;99.90;;;;;;5089690;28;20024;-72
2022/11/28 10:19:48;;;;;;;34.25;19.52;;;10.70;99.90;;;;;;5108062;28;20042;-72
2022/11/28 10:22:19;;;;;;;38.72;19.88;;;10.80;99.90;;;;;;5091901;28;20040;-72
2022/11/28 10:24:53;;;;;;;32.92;17.92;;;10.80;99.90;;;;;;5091796;28;20073;-73
2022/11/28 10:27:21;;;;;;;44.78;22.00;;;10.80;99.90;;;;;;5092846;28;20107;-72
2022/11/28 10:30:00;;;;;;;41.95;20.45;;;10.80;99.90;;;;;;5091260;28;20035;-71
2022/11/28 10:32:36;;;;;;;43.33;20.90;;;10.80;99.90;;;;;;5090369;28;20028;-74
2022/11/28 10:35:24;;;;;;;46.88;23.23;;;10.90;99.90;;;;;;5089205;28;20078;-72
2022/11/28 10:37:50;;;;;;;43.63;22.00;;;10.90;99.90;;;;;;5087455;28;20028;-73
2022/11/28 10:40:16;;;;;;;46.88;22.52;;;10.90;99.90;;;;;;5091682;28;20058;-72
2022/11/28 10:43:00;;;;;;;47.83;24.33;;;10.90;99.90;;;;;;5088958;28;20066;-74
2022/11/28 10:46:11;;;;;;;56.35;24.50;;;10.90;99.90;;;;;;5091437;28;20032;-73
2022/11/28 10:48:46;;;;;;;52.17;24.35;;;10.90;99.90;;;;;;5086914;28;20242;-71
2022/11/28 10:51:42;;;;;;;45.33;24.13;;;11.00;99.90;;;;;;5091121;28;20103;-73
2022/11/28 10:54:45;;;;;;;56.03;25.40;;;11.00;99.90;;;;;;5085073;28;20032;-73
2022/11/28 10:57:22;;;;;;;61.90;27.00;;;10.90;99.90;;;;;;5058109;28;20032;-70
2022/11/28 11:00:07;;;;;;;54.25;26.05;;;10.90;99.90;;;;;;5077695;28;20052;-74
2022/11/28 11:02:37;;;;;;;53.00;26.52;;;10.90;99.90;;;;;;5081547;28;20711;-74
2022/11/28 11:05:05;;;;;;;56.50;25.90;;;11.00;99.90;;;;;;5085542;28;20568;-75
2022/11/28 11:07:32;;;;;;;54.20;27.35;;;11.00;99.90;;;;;;5085786;28;20432;-74
2022/11/28 11:10:06;;;;;;;56.67;26.67;;;11.00;99.90;;;;;;5084954;28;20127;-71
2022/11/28 11:12:33;;;;;;;59.40;25.20;;;11.00;99.90;;;;;;5084152;28;20103;-69
2022/11/28 11:15:18;;;;;;;58.08;23.67;;;11.00;99.90;;;;;;5081896;28;20068;-68
2022/11/28 11:17:44;;;;;;;58.72;25.48;;;11.00;99.90;;;;;;5086867;28;20464;-68
2022/11/28 11:20:22;;;;;;;60.85;25.38;;;11.00;99.90;;;;;;5086868;28;20076;-69
2022/11/28 11:23:11;;;;;;;68.93;29.88;;;11.00;99.90;;;;;;5081911;28;20044;-69
2022/11/28 11:25:36;;;;;;;53.70;25.02;;;11.10;99.90;;;;;;5086029;28;20111;-68
2022/11/28 11:28:03;;;;;;;62.67;27.42;;;11.00;99.90;;;;;;5082717;28;20494;-69
2022/11/28 11:30:33;;;;;;;58.50;27.08;;;11.10;99.90;;;;;;5085858;28;20032;-69
2022/11/28 11:33:01;;;;;;;61.67;27.00;;;11.10;99.90;;;;;;5087284;28;20051;-69
2022/11/28 11:35:41;;;;;;;64.30;28.30;;;11.10;99.90;;;;;;5086191;28;20067;-69
2022/11/28 11:38:22;;;;;;;79.75;27.63;;;11.20;99.90;;;;;;5085313;28;20372;-69
2022/11/28 11:40:49;;;;;;;59.78;25.35;;;11.20;99.90;;;;;;5085305;28;20459;-72
2022/11/28 11:43:26;;;;;;;54.40;24.27;;;11.30;99.90;;;;;;5083105;28;20020;-70
2022/11/28 11:46:04;;;;;;;60.85;25.63;;;11.30;99.90;;;;;;5081814;28;20028;-70
2022/11/28 11:48:40;;;;;;;55.03;24.52;;;11.30;99.90;;;;;;5082754;28;20024;-70
2022/11/28 11:51:20;;;;;;;65.60;27.45;;;11.40;99.90;;;;;;5079917;28;20036;-73
2022/11/28 11:53:46;;;;;;;59.05;28.00;;;11.40;99.90;;;;;;5083931;28;20464;-70
2022/11/28 11:56:13;;;;;;;62.80;28.55;;;11.40;99.90;;;;;;5077821;28;20134;-72
2022/11/28 11:58:47;;;;;;;64.65;28.60;;;11.40;99.90;;;;;;5080058;28;20099;-72
2022/11/28 12:01:16;;;;;;;52.28;25.25;;;11.40;99.90;;;;;;5081208;28;20056;-73
2022/11/28 12:03:56;;;;;;;55.58;24.75;;;11.50;99.90;;;;;;5076076;28;20709;-69
2022/11/28 12:06:33;;;;;;;46.47;23.10;;;11.50;99.90;;;;;;5079009;28;20480;-72
2022/11/28 12:09:26;;;;;;;49.35;23.17;;;11.40;99.90;;;;;;5078242;28;20527;-69
2022/11/28 12:11:59;;;;;;;47.80;21.90;;;11.50;99.90;;;;;;5080761;28;20117;-70
2022/11/28 12:14:37;;;;;;;48.67;21.35;;;11.40;99.90;;;;;;5081804;28;20510;-69
2022/11/28 12:17:28;;;;;;;51.45;22.55;;;11.50;99.90;;;;;;5082117;28;20422;-68
2022/11/28 12:20:09;;;;;;;45.75;22.98;;;11.50;99.90;;;;;;5080057;28;20040;-69
2022/11/28 12:22:43;;;;;;;49.03;21.63;;;11.50;99.90;;;;;;5080743;28;20036;-69
2022/11/28 12:25:14;;;;;;;51.38;20.58;;;11.50;99.90;;;;;;5081278;28;20029;-69
2022/11/28 12:28:03;;;;;;;46.78;20.77;;;11.50;99.90;;;;;;5076630;28;20032;-69
2022/11/28 12:30:56;;;;;;;43.10;19.92;;;11.60;99.90;;;;;;5081350;28;20020;-68
2022/11/28 12:33:47;;;;;;;61.45;23.88;;;11.60;99.90;;;;;;5094020;28;20186;-68
2022/11/28 12:36:34;;;;;;;46.28;20.02;;;11.60;99.90;;;;;;5073587;28;20024;-68
2022/11/28 12:39:08;;;;;;;45.15;20.40;;;11.60;99.90;;;;;;5080234;28;20024;-69
2022/11/28 12:41:58;;;;;;;49.78;21.20;;;11.60;99.90;;;;;;5078480;28;20032;-68
2022/11/28 12:44:51;;;;;;;50.30;21.65;;;11.60;99.90;;;;;;5076093;28;20054;-68
2022/11/28 12:47:16;;;;;;;49.22;20.75;;;11.70;99.90;;;;;;5081650;28;20023;-68
2022/11/28 12:49:58;;;;;;;61.35;24.65;;;11.60;99.90;;;;;;5077099;28;20027;-68
2022/11/28 12:52:36;;;;;;;52.88;22.02;;;11.70;99.90;;;;;;5096885;28;20024;-68
2022/11/28 12:55:20;;;;;;;48.00;20.00;;;11.60;99.90;;;;;;5077977;28;20025;-68
2022/11/28 12:58:01;;;;;;;39.50;18.45;;;11.60;99.90;;;;;;5080243;28;20024;-68
2022/11/28 13:00:27;;;;;;;52.92;20.30;;;11.60;99.90;;;;;;5077782;28;20026;-68
2022/11/28 13:03:17;;;;;;;52.85;20.50;;;11.60;99.90;;;;;;5080317;28;20388;-69
2022/11/28 13:05:49;;;;;;;50.25;20.88;;;11.70;99.90;;;;;;5083326;28;20103;-69